Skip Navigation Links
NOAA logo - Click to go to the NOAA homepage
NOAA's National Weather Service
Alaska Aviation Weather Unit
  NWS logo - Click to go to the NWS homepage
Left Navbar Graphic     09 AKDT = 17 GMT

   
NOAA is celebrating 200 years of science, service, and stewardship. Visit the NOAA 200th celebration Web site to learn more.
USA.gov is the U.S. Government's official Web portal to all Federal, state and local government Web resources and services.
Facebook
NWS on Facebook

Important Change Regarding the AAWU Web Presence

 

Over the last several months, the AAWU has been working to navigate its webpages to a nationally supported server. Security, as well as other needs, have necessitated the change.  In the process, we have made an effort to enhance the functionality of our website, as well as some of our products. As of June 20, 2017, aawu.arh.noaa.gov will be discontinued. The new AAWU web address is weather.gov/aawu. It is now live and will run in-parallel with the old site until it is discontinued. Please send any feedback or questions regarding the new webpages to nws.ar.aawu.webauthors@noaa.gov.  Thank you for your patience during this time of transition.
AAWU Home :: Display TAF Add Bookmark
TAF CYPC 271439Z 2715/2723 25012KT 5SM -RA BR OVC005 TEMPO 2715/2723
     P6SM -RA OVC010
    RMK NXT FCST BY 271900Z=

METAR CYPC 271300Z 25012KT 8SM -RA OVC005 01/00 A2984 RMK ST8 1.3/0.4/0.8MM SLP108= METAR CYPC 271400Z 25013KT 10SM -RA OVC005 01/00 A2986 RMK ST8 SLP114= METAR CYPC 271500Z 26014KT 15SM OVC005 01/00 A2987 RMK ST8 SLP118= METAR CYPC 271600Z 27011KT 15SM BKN007 OVC012 01/00 A2990 RMK ST7SC1 SLP126= METAR CYPC 271700Z 29009KT 15SM OVC007 01/00 A2991 RMK ST8 SLP132=
 Alaska TAF Map

NOAA's National Weather Service
Alaska Aviation Weather Unit
6930 Sand Lake Road
Anchorage, AK 99502-1845
Disclaimer
Credits
Glossary
Privacy Policy
About Us
Career Opportunities
Contact AAWU Internet Services Site last modified: April, 17th 2012